Terminal Aerodrome Forecast
Issued by NWS

Home | Current Version | Previous Version | Graphics & Text | Print | Product List | Glossary On
Versions: 1 2 3 4 5 6 7 8 9 10 11 12 13 14 15 16 17 18
917
FTUS43 KBIS 212339
TAFDIK
TAF
KDIK 212339Z 2200/2224 34010KT P6SM SKC
     FM220300 36006KT P6SM SCT150
     FM220600 02008KT P6SM FEW080 BKN200
     FM221200 03010KT P6SM VCSH BKN070
     FM221500 03016G24KT P6SM VCSH BKN050 OVC070
     FM221800 02016G24KT P6SM BKN035 OVC070=

USA.gov is the U.S. government's official web portal to all federal, state and local government web resources and services.